Time;durP1;ratioP1;P1;durP2;ratioP2;P2;SDS_P1;SDS_P2;PMS_P1;PMS_P2;Temp;Humidity;BMP_temperature;BMP_pressure;BME280_temperature;BME280_humidity;BME280_pressure;Samples;Min_cycle;Max_cycle;Signal;HPM_P1;HPM_P2
2023/01/28 00:00:12;;;;;;;;;;;;;;;;;;1047868;28;2687;-54
2023/01/28 00:01:06;;;;;;;;;;;;;;;;;;1039584;28;3868;-54
2023/01/28 00:01:36;;;;;;;;;;;;;;;;;;1044696;28;2164;-52
2023/01/28 00:02:07;;;;;;;;;;;;;;;;;;1045501;28;3711;-53
2023/01/28 00:02:37;;;;;;;;;;;;;;;;;;1043212;28;1978;-51
2023/01/28 00:03:07;;;;;;;;;;;;;;;;;;1044420;28;3739;-52
2023/01/28 00:03:38;;;;;;;;;;;;;;;;;;1047440;28;2019;-54
2023/01/28 00:04:09;;;;;;;;;;;;;;;;;;1046841;28;3865;-51
2023/01/28 00:04:39;;;;;;;;;;;;;;;;;;1051076;28;3879;-55
2023/01/28 00:05:10;;;;;;;;;;;;;;;;;;1046764;28;2031;-54
2023/01/28 00:05:40;;;;;;;;;;;;;;;;;;1046637;28;4048;-53
2023/01/28 00:06:11;;;;;;;;;;;;;;;;;;1043255;28;2265;-55
2023/01/28 00:06:42;;;;;;;;;;;;;;;;;;1042820;28;3886;-54
2023/01/28 00:07:12;;;;;;;;;;;;;;;;;;1043471;28;2229;-54
2023/01/28 00:07:42;;;;;;;;;;;;;;;;;;1045970;28;3868;-54
2023/01/28 00:08:13;;;;;;;;;;;;;;;;;;1044450;28;1682;-52
2023/01/28 00:08:43;;;;;;;;;;;;;;;;;;1051359;28;4201;-55
2023/01/28 00:09:14;;;;;;;;;;;;;;;;;;1052014;28;1919;-51
2023/01/28 00:09:44;;;;;;;;;;;;;;;;;;1050982;28;3827;-52
2023/01/28 00:10:15;;;;;;;;;;;;;;;;;;1048707;28;2911;-51
2023/01/28 00:10:45;;;;;;;;;;;;;;;;;;1047189;28;3943;-54
2023/01/28 00:11:15;;;;;;;;;;;;;;;;;;1046127;28;1881;-53
2023/01/28 00:11:46;;;;;;;;;;;;;;;;;;1043841;28;5231;-55
2023/01/28 00:12:16;;;;;;;;;;;;;;;;;;1047506;28;1745;-54
2023/01/28 00:12:46;;;;;;;;;;;;;;;;;;1040861;28;4283;-53
2023/01/28 00:13:16;;;;;;;;;;;;;;;;;;1046486;28;1600;-55
2023/01/28 00:13:53;;;;;;;;;;;;;;;;;;1046456;28;3914;-52
2023/01/28 00:14:23;;;;;;;;;;;;;;;;;;1043713;28;2640;-54
2023/01/28 00:14:53;;;;;;;;;;;;;;;;;;1049428;28;4075;-52
2023/01/28 00:15:24;;;;;;;;;;;;;;;;;;1051743;28;1649;-53
2023/01/28 00:16:03;;;;;;;;;;;;;;;;;;1050207;28;3962;-55
2023/01/28 00:16:33;;;;;;;;;;;;;;;;;;1050772;28;2199;-52
2023/01/28 00:17:04;;;;;;;;;;;;;;;;;;1050153;28;4071;-54
2023/01/28 00:17:35;;;;;;;;;;;;;;;;;;1046009;28;2979;-55
2023/01/28 00:18:06;;;;;;;;;;;;;;;;;;1045777;28;3787;-51
2023/01/28 00:18:36;;;;;;;;;;;;;;;;;;1043179;28;1699;-54
2023/01/28 00:19:07;;;;;;;;;;;;;;;;;;1041944;28;3829;-54
2023/01/28 00:19:37;;;;;;;;;;;;;;;;;;1039127;28;2823;-53
2023/01/28 00:20:08;;;;;;;;;;;;;;;;;;1043972;28;3920;-53
2023/01/28 00:20:38;;;;;;;;;;;;;;;;;;1050998;28;2087;-52
2023/01/28 00:21:10;;;;;;;;;;;;;;;;;;1045027;28;4049;-54
2023/01/28 00:21:40;;;;;;;;;;;;;;;;;;1048103;28;3942;-54
2023/01/28 00:22:10;;;;;;;;;;;;;;;;;;1050381;28;2022;-53
2023/01/28 00:22:45;;;;;;;;;;;;;;;;;;1047102;28;3868;-53
2023/01/28 00:23:16;;;;;;;;;;;;;;;;;;1044609;28;2893;-54
2023/01/28 00:23:51;;;;;;;;;;;;;;;;;;1046687;28;3760;-52
2023/01/28 00:24:21;;;;;;;;;;;;;;;;;;1046675;28;2186;-52
2023/01/28 00:24:51;;;;;;;;;;;;;;;;;;1049155;28;3768;-51
2023/01/28 00:25:21;;;;;;;;;;;;;;;;;;1051121;28;1676;-54
2023/01/28 00:25:53;;;;;;;;;;;;;;;;;;1051496;28;3966;-52
2023/01/28 00:26:26;;;;;;;;;;;;;;;;;;1044956;28;1899;-54
2023/01/28 00:26:57;;;;;;;;;;;;;;;;;;1044588;28;3726;-53
2023/01/28 00:27:27;;;;;;;;;;;;;;;;;;1045977;28;2292;-53
2023/01/28 00:27:57;;;;;;;;;;;;;;;;;;1046925;28;4225;-53
2023/01/28 00:28:28;;;;;;;;;;;;;;;;;;1048157;28;3041;-51
2023/01/28 00:28:58;;;;;;;;;;;;;;;;;;1050903;28;4197;-54
2023/01/28 00:29:28;;;;;;;;;;;;;;;;;;1051301;28;1774;-54
2023/01/28 00:29:59;;;;;;;;;;;;;;;;;;1047987;28;3986;-54
2023/01/28 00:30:29;;;;;;;;;;;;;;;;;;1051607;28;1811;-54
2023/01/28 00:31:05;;;;;;;;;;;;;;;;;;1049397;28;3768;-54
2023/01/28 00:31:36;;;;;;;;;;;;;;;;;;1047100;28;2603;-54
2023/01/28 00:32:06;;;;;;;;;;;;;;;;;;1050851;28;3757;-52
2023/01/28 00:32:37;;;;;;;;;;;;;;;;;;1044887;28;2680;-53
2023/01/28 00:33:07;;;;;;;;;;;;;;;;;;1044768;28;4353;-54
2023/01/28 00:33:37;;;;;;;;;;;;;;;;;;1043536;28;1722;-51
2023/01/28 00:34:08;;;;;;;;;;;;;;;;;;1044311;28;3711;-52
2023/01/28 00:34:38;;;;;;;;;;;;;;;;;;1050854;28;1982;-54
2023/01/28 00:35:08;;;;;;;;;;;;;;;;;;1051187;28;3714;-52
2023/01/28 00:35:38;;;;;;;;;;;;;;;;;;1045026;28;2784;-52
2023/01/28 00:36:09;;;;;;;;;;;;;;;;;;1042508;28;3812;-54
2023/01/28 00:36:41;;;;;;;;;;;;;;;;;;1042411;28;3976;-51
2023/01/28 00:37:11;;;;;;;;;;;;;;;;;;1045199;28;2931;-55
2023/01/28 00:37:43;;;;;;;;;;;;;;;;;;1041355;28;4283;-54
2023/01/28 00:38:27;;;;;;;;;;;;;;;;;;1049916;28;2783;-55
2023/01/28 00:39:04;;;;;;;;;;;;;;;;;;1049464;28;3925;-54
2023/01/28 00:39:35;;;;;;;;;;;;;;;;;;1050928;28;3407;-54
2023/01/28 00:40:05;;;;;;;;;;;;;;;;;;1046950;28;3888;-55
2023/01/28 00:40:36;;;;;;;;;;;;;;;;;;1051943;28;1700;-54
2023/01/28 00:41:16;;;;;;;;;;;;;;;;;;1049367;28;3892;-51
2023/01/28 00:41:46;;;;;;;;;;;;;;;;;;1049714;28;4174;-54
2023/01/28 00:42:16;;;;;;;;;;;;;;;;;;1046713;28;1907;-55
2023/01/28 00:42:47;;;;;;;;;;;;;;;;;;1044773;28;4414;-52
2023/01/28 00:43:17;;;;;;;;;;;;;;;;;;1046481;28;1956;-54
2023/01/28 00:43:48;;;;;;;;;;;;;;;;;;1046744;28;3959;-51
2023/01/28 00:44:19;;;;;;;;;;;;;;;;;;1050919;28;1605;-54
2023/01/28 00:44:49;;;;;;;;;;;;;;;;;;1048837;28;4421;-50
2023/01/28 00:45:19;;;;;;;;;;;;;;;;;;1047951;28;2943;-54
2023/01/28 00:45:50;;;;;;;;;;;;;;;;;;1051441;28;3782;-53
2023/01/28 00:46:21;;;;;;;;;;;;;;;;;;1046993;28;2645;-53
2023/01/28 00:46:51;;;;;;;;;;;;;;;;;;1050569;28;3774;-54
2023/01/28 00:47:22;;;;;;;;;;;;;;;;;;1048286;28;2754;-50
2023/01/28 00:47:52;;;;;;;;;;;;;;;;;;1050822;28;4367;-54
2023/01/28 00:48:22;;;;;;;;;;;;;;;;;;1049773;28;1927;-51
2023/01/28 00:48:52;;;;;;;;;;;;;;;;;;1050889;28;4053;-53
2023/01/28 00:49:23;;;;;;;;;;;;;;;;;;1051181;28;1452;-53
2023/01/28 00:49:53;;;;;;;;;;;;;;;;;;1044183;28;4235;-53
2023/01/28 00:50:23;;;;;;;;;;;;;;;;;;1043391;28;2809;-52
2023/01/28 00:50:54;;;;;;;;;;;;;;;;;;1045603;28;4358;-55
2023/01/28 00:51:24;;;;;;;;;;;;;;;;;;1047502;28;1637;-54
2023/01/28 00:51:54;;;;;;;;;;;;;;;;;;1046792;28;3949;-54
2023/01/28 00:52:25;;;;;;;;;;;;;;;;;;1050368;28;1704;-53
2023/01/28 00:52:55;;;;;;;;;;;;;;;;;;1047352;28;4050;-54
2023/01/28 00:53:25;;;;;;;;;;;;;;;;;;1051693;28;1885;-52
2023/01/28 00:53:55;;;;;;;;;;;;;;;;;;1047139;28;3933;-52
2023/01/28 00:54:26;;;;;;;;;;;;;;;;;;1051766;28;1593;-55
2023/01/28 00:54:56;;;;;;;;;;;;;;;;;;1046380;28;4376;-53
2023/01/28 00:55:27;;;;;;;;;;;;;;;;;;1046636;28;2230;-52
2023/01/28 00:55:57;;;;;;;;;;;;;;;;;;1046879;28;3951;-53
2023/01/28 00:56:27;;;;;;;;;;;;;;;;;;1043972;28;2052;-52
2023/01/28 00:56:58;;;;;;;;;;;;;;;;;;1051136;28;4042;-54
2023/01/28 00:57:28;;;;;;;;;;;;;;;;;;1050641;28;1632;-55
2023/01/28 00:57:58;;;;;;;;;;;;;;;;;;1051261;28;3720;-54
2023/01/28 00:58:35;;;;;;;;;;;;;;;;;;1045311;28;1928;-54
2023/01/28 00:59:05;;;;;;;;;;;;;;;;;;1043935;28;3738;-53
2023/01/28 00:59:36;;;;;;;;;;;;;;;;;;1044678;28;3053;-54
2023/01/28 01:00:06;;;;;;;;;;;;;;;;;;1047629;28;3715;-52
2023/01/28 01:00:37;;;;;;;;;;;;;;;;;;1051165;28;1955;-53
2023/01/28 01:01:11;;;;;;;;;;;;;;;;;;1048668;28;3763;-51
2023/01/28 01:01:41;;;;;;;;;;;;;;;;;;1048964;28;3966;-51
2023/01/28 01:02:12;;;;;;;;;;;;;;;;;;1049540;28;2447;-53
2023/01/28 01:02:42;;;;;;;;;;;;;;;;;;1048018;28;3806;-51
2023/01/28 01:03:12;;;;;;;;;;;;;;;;;;1051344;28;2014;-52
2023/01/28 01:03:43;;;;;;;;;;;;;;;;;;1050783;28;4057;-51
2023/01/28 01:04:25;;;;;;;;;;;;;;;;;;1046829;28;1751;-53
2023/01/28 01:04:58;;;;;;;;;;;;;;;;;;1043233;28;4007;-55
2023/01/28 01:05:32;;;;;;;;;;;;;;;;;;1044248;28;2090;-52
2023/01/28 01:06:03;;;;;;;;;;;;;;;;;;1047382;28;3696;-53
2023/01/28 01:06:34;;;;;;;;;;;;;;;;;;1045751;28;2134;-53
2023/01/28 01:07:05;;;;;;;;;;;;;;;;;;1046635;28;3732;-53
2023/01/28 01:07:41;;;;;;;;;;;;;;;;;;1046235;28;1893;-54
2023/01/28 01:08:12;;;;;;;;;;;;;;;;;;1047277;28;3973;-55
2023/01/28 01:08:48;;;;;;;;;;;;;;;;;;1050632;28;3830;-53
2023/01/28 01:09:19;;;;;;;;;;;;;;;;;;1047627;28;2876;-52
2023/01/28 01:09:49;;;;;;;;;;;;;;;;;;1046042;28;4038;-54
2023/01/28 01:10:19;;;;;;;;;;;;;;;;;;1050596;28;3086;-53
2023/01/28 01:10:49;;;;;;;;;;;;;;;;;;1046417;28;3866;-55
2023/01/28 01:11:20;;;;;;;;;;;;;;;;;;1048179;28;2853;-54
2023/01/28 01:11:50;;;;;;;;;;;;;;;;;;1047576;28;3978;-51
2023/01/28 01:12:20;;;;;;;;;;;;;;;;;;1051821;28;1234;-55
2023/01/28 01:12:50;;;;;;;;;;;;;;;;;;1051037;28;3929;-54
2023/01/28 01:13:21;;;;;;;;;;;;;;;;;;1050631;28;2204;-53
2023/01/28 01:13:53;;;;;;;;;;;;;;;;;;1051252;28;4049;-55
2023/01/28 01:14:23;;;;;;;;;;;;;;;;;;1049720;28;2561;-52
2023/01/28 01:14:54;;;;;;;;;;;;;;;;;;1048100;28;4025;-54
2023/01/28 01:15:24;;;;;;;;;;;;;;;;;;1045911;28;1761;-53
2023/01/28 01:16:02;;;;;;;;;;;;;;;;;;1042664;28;3954;-53
2023/01/28 01:16:34;;;;;;;;;;;;;;;;;;1037397;28;1877;-52
2023/01/28 01:17:05;;;;;;;;;;;;;;;;;;1040975;28;3999;-53
2023/01/28 01:17:36;;;;;;;;;;;;;;;;;;1044056;28;1661;-54
2023/01/28 01:18:06;;;;;;;;;;;;;;;;;;1045996;28;4302;-54
2023/01/28 01:18:40;;;;;;;;;;;;;;;;;;1042908;28;2154;-53
2023/01/28 01:19:11;;;;;;;;;;;;;;;;;;1040345;28;3828;-54
2023/01/28 01:19:41;;;;;;;;;;;;;;;;;;1040928;28;4077;-54
2023/01/28 01:20:12;;;;;;;;;;;;;;;;;;1043102;28;1616;-54
2023/01/28 01:20:44;;;;;;;;;;;;;;;;;;1041880;28;3769;-53
2023/01/28 01:21:16;;;;;;;;;;;;;;;;;;1038000;28;2779;-53
2023/01/28 01:21:49;;;;;;;;;;;;;;;;;;1042885;28;3979;-53
2023/01/28 01:22:19;;;;;;;;;;;;;;;;;;1043148;28;1627;-54
2023/01/28 01:22:49;;;;;;;;;;;;;;;;;;1044257;28;4390;-54
2023/01/28 01:23:20;;;;;;;;;;;;;;;;;;1051579;28;1509;-53
2023/01/28 01:23:51;;;;;;;;;;;;;;;;;;1048461;28;3876;-54
2023/01/28 01:24:21;;;;;;;;;;;;;;;;;;1046003;28;1692;-55
2023/01/28 01:24:51;;;;;;;;;;;;;;;;;;1046388;28;4061;-52
2023/01/28 01:25:21;;;;;;;;;;;;;;;;;;1049820;28;2194;-53
2023/01/28 01:25:52;;;;;;;;;;;;;;;;;;1047427;28;4269;-53
2023/01/28 01:26:22;;;;;;;;;;;;;;;;;;1045123;28;1797;-51
2023/01/28 01:26:52;;;;;;;;;;;;;;;;;;1042660;28;4095;-54
2023/01/28 01:27:22;;;;;;;;;;;;;;;;;;1045673;28;2046;-51
2023/01/28 01:27:53;;;;;;;;;;;;;;;;;;1040529;28;3966;-54
2023/01/28 01:28:23;;;;;;;;;;;;;;;;;;1046504;28;2515;-52
2023/01/28 01:28:53;;;;;;;;;;;;;;;;;;1041819;28;4231;-54
2023/01/28 01:29:24;;;;;;;;;;;;;;;;;;1043850;28;2894;-52
2023/01/28 01:30:01;;;;;;;;;;;;;;;;;;1044115;28;4172;-52
2023/01/28 01:30:31;;;;;;;;;;;;;;;;;;1045352;28;3300;-54
2023/01/28 01:31:13;;;;;;;;;;;;;;;;;;1044246;28;4229;-54
2023/01/28 01:31:43;;;;;;;;;;;;;;;;;;1047710;28;3791;-54
2023/01/28 01:32:14;;;;;;;;;;;;;;;;;;1044630;28;2917;-54
2023/01/28 01:32:44;;;;;;;;;;;;;;;;;;1047815;28;4068;-51
2023/01/28 01:33:15;;;;;;;;;;;;;;;;;;1047096;28;2651;-54
2023/01/28 01:33:46;;;;;;;;;;;;;;;;;;1047898;28;3949;-54
2023/01/28 01:34:16;;;;;;;;;;;;;;;;;;1047770;28;3006;-53
2023/01/28 01:34:47;;;;;;;;;;;;;;;;;;1045352;28;3825;-55
2023/01/28 01:35:17;;;;;;;;;;;;;;;;;;1040828;28;2865;-53
2023/01/28 01:35:52;;;;;;;;;;;;;;;;;;1040480;28;4225;-53
2023/01/28 01:36:22;;;;;;;;;;;;;;;;;;1040263;28;2939;-52
2023/01/28 01:36:59;;;;;;;;;;;;;;;;;;1046145;28;3951;-53
2023/01/28 01:37:29;;;;;;;;;;;;;;;;;;1050000;28;1710;-52
2023/01/28 01:37:59;;;;;;;;;;;;;;;;;;1046754;28;3889;-54
2023/01/28 01:38:43;;;;;;;;;;;;;;;;;;1047558;28;2707;-54
2023/01/28 01:39:20;;;;;;;;;;;;;;;;;;1049588;28;3957;-55
2023/01/28 01:39:50;;;;;;;;;;;;;;;;;;1047891;28;4075;-51
2023/01/28 01:40:20;;;;;;;;;;;;;;;;;;1051838;28;1839;-52
2023/01/28 01:40:51;;;;;;;;;;;;;;;;;;1048844;28;4416;-55
2023/01/28 01:41:23;;;;;;;;;;;;;;;;;;1050132;28;1620;-54
2023/01/28 01:41:53;;;;;;;;;;;;;;;;;;1050779;28;3968;-51
2023/01/28 01:42:24;;;;;;;;;;;;;;;;;;1051558;28;1603;-54
2023/01/28 01:42:54;;;;;;;;;;;;;;;;;;1050805;28;4042;-51
2023/01/28 01:43:44;;;;;;;;;;;;;;;;;;1051674;28;1592;-54
2023/01/28 01:44:33;;;;;;;;;;;;;;;;;;1049500;28;3859;-53
2023/01/28 01:45:11;;;;;;;;;;;;;;;;;;1046775;28;3765;-54
2023/01/28 01:45:42;;;;;;;;;;;;;;;;;;1045442;28;3945;-54
2023/01/28 01:46:12;;;;;;;;;;;;;;;;;;1045748;28;3281;-54
2023/01/28 01:46:46;;;;;;;;;;;;;;;;;;1044570;28;4096;-52
2023/01/28 01:47:17;;;;;;;;;;;;;;;;;;1048786;28;2661;-54
2023/01/28 01:47:50;;;;;;;;;;;;;;;;;;1047908;28;3800;-54
2023/01/28 01:48:23;;;;;;;;;;;;;;;;;;1046292;28;1737;-55
2023/01/28 01:48:54;;;;;;;;;;;;;;;;;;1046202;28;4101;-54
2023/01/28 01:49:25;;;;;;;;;;;;;;;;;;1046857;28;2217;-55
2023/01/28 01:49:56;;;;;;;;;;;;;;;;;;1047319;28;4245;-52
2023/01/28 01:50:32;;;;;;;;;;;;;;;;;;1051286;28;1694;-55
2023/01/28 01:51:07;;;;;;;;;;;;;;;;;;1051212;28;3995;-53
2023/01/28 01:51:38;;;;;;;;;;;;;;;;;;1050339;28;2631;-53
2023/01/28 01:52:14;;;;;;;;;;;;;;;;;;1046767;28;3739;-55
2023/01/28 01:52:44;;;;;;;;;;;;;;;;;;1042565;28;4141;-53
2023/01/28 01:53:17;;;;;;;;;;;;;;;;;;1043556;28;2161;-55
2023/01/28 01:53:50;;;;;;;;;;;;;;;;;;1047895;28;4434;-51
2023/01/28 01:54:23;;;;;;;;;;;;;;;;;;1047735;28;2172;-54
2023/01/28 01:54:55;;;;;;;;;;;;;;;;;;1051235;28;4289;-53
2023/01/28 01:55:28;;;;;;;;;;;;;;;;;;1043623;28;1762;-53
2023/01/28 01:56:01;;;;;;;;;;;;;;;;;;1044608;28;3924;-54
2023/01/28 01:56:33;;;;;;;;;;;;;;;;;;1043319;28;1504;-54
2023/01/28 01:57:05;;;;;;;;;;;;;;;;;;1042713;28;3764;-53
2023/01/28 01:57:35;;;;;;;;;;;;;;;;;;1051238;28;2023;-52
2023/01/28 01:58:07;;;;;;;;;;;;;;;;;;1046379;28;5164;-54
2023/01/28 01:58:39;;;;;;;;;;;;;;;;;;1046723;28;1759;-54
2023/01/28 01:59:11;;;;;;;;;;;;;;;;;;1046350;28;3875;-52
2023/01/28 01:59:42;;;;;;;;;;;;;;;;;;1047137;28;4101;-55
2023/01/28 02:00:12;;;;;;;;;;;;;;;;;;1051700;28;2021;-52
2023/01/28 02:00:42;;;;;;;;;;;;;;;;;;1050568;28;4230;-53
2023/01/28 02:01:13;;;;;;;;;;;;;;;;;;1051605;28;1663;-54
2023/01/28 02:01:44;;;;;;;;;;;;;;;;;;1044883;28;4021;-52
2023/01/28 02:02:15;;;;;;;;;;;;;;;;;;1050541;28;1606;-52
2023/01/28 02:02:46;;;;;;;;;;;;;;;;;;1045654;28;3841;-54
2023/01/28 02:03:18;;;;;;;;;;;;;;;;;;1047081;28;1624;-54
2023/01/28 02:03:58;;;;;;;;;;;;;;;;;;1045439;28;3991;-53
2023/01/28 02:04:29;;;;;;;;;;;;;;;;;;1046297;28;2230;-54
2023/01/28 02:05:00;;;;;;;;;;;;;;;;;;1048551;28;3889;-51
2023/01/28 02:05:30;;;;;;;;;;;;;;;;;;1051177;28;1911;-53
2023/01/28 02:06:00;;;;;;;;;;;;;;;;;;1047689;28;3975;-55
2023/01/28 02:06:31;;;;;;;;;;;;;;;;;;1051397;28;1689;-51
2023/01/28 02:07:01;;;;;;;;;;;;;;;;;;1046872;28;4309;-53
2023/01/28 02:07:32;;;;;;;;;;;;;;;;;;1049064;28;3194;-52
2023/01/28 02:08:21;;;;;;;;;;;;;;;;;;1047693;28;3921;-53
2023/01/28 02:08:55;;;;;;;;;;;;;;;;;;1047855;28;4429;-53
2023/01/28 02:09:29;;;;;;;;;;;;;;;;;;1050129;28;2011;-55
2023/01/28 02:09:59;;;;;;;;;;;;;;;;;;1048877;28;3866;-54
2023/01/28 02:10:30;;;;;;;;;;;;;;;;;;1051402;28;1848;-54
2023/01/28 02:11:02;;;;;;;;;;;;;;;;;;1051155;28;4073;-52
2023/01/28 02:11:33;;;;;;;;;;;;;;;;;;1048434;28;1695;-53
2023/01/28 02:12:06;;;;;;;;;;;;;;;;;;1050965;28;3993;-55
2023/01/28 02:12:39;;;;;;;;;;;;;;;;;;1046815;28;2027;-54
2023/01/28 02:13:09;;;;;;;;;;;;;;;;;;1046649;28;3721;-52
2023/01/28 02:13:41;;;;;;;;;;;;;;;;;;1046344;28;3955;-51
2023/01/28 02:14:12;;;;;;;;;;;;;;;;;;1044099;28;2781;-54
2023/01/28 02:15:11;;;;;;;;;;;;;;;;;;1050644;28;3783;-55
2023/01/28 02:15:43;;;;;;;;;;;;;;;;;;1027365;28;4018;-52
2023/01/28 02:16:13;;;;;;;;;;;;;;;;;;1043670;28;2564;-51
2023/01/28 02:16:43;;;;;;;;;;;;;;;;;;1045323;28;3955;-50
2023/01/28 02:17:14;;;;;;;;;;;;;;;;;;1049211;28;1902;-54
2023/01/28 02:17:45;;;;;;;;;;;;;;;;;;1048402;28;4395;-54
2023/01/28 02:18:15;;;;;;;;;;;;;;;;;;1048029;28;2777;-55
2023/01/28 02:18:45;;;;;;;;;;;;;;;;;;1044371;28;3771;-50
2023/01/28 02:19:17;;;;;;;;;;;;;;;;;;1046202;28;1730;-52
2023/01/28 02:19:52;;;;;;;;;;;;;;;;;;1046540;28;4012;-54
2023/01/28 02:20:36;;;;;;;;;;;;;;;;;;1041681;28;2818;-54
2023/01/28 02:21:13;;;;;;;;;;;;;;;;;;1044822;28;3927;-52
2023/01/28 02:22:00;;;;;;;;;;;;;;;;;;1046640;28;3857;-51
2023/01/28 02:22:42;;;;;;;;;;;;;;;;;;1045354;28;1769;-54
2023/01/28 02:23:33;;;;;;;;;;;;;;;;;;1039932;28;3810;-52
2023/01/28 02:24:03;;;;;;;;;;;;;;;;;;1020851;28;3909;-54
2023/01/28 02:24:50;;;;;;;;;;;;;;;;;;1042269;28;2123;-52
2023/01/28 02:25:33;;;;;;;;;;;;;;;;;;1049983;28;3739;-51
2023/01/28 02:26:03;;;;;;;;;;;;;;;;;;1046541;28;3788;-55
2023/01/28 02:26:56;;;;;;;;;;;;;;;;;;1051142;28;2063;-53
2023/01/28 02:27:32;;;;;;;;;;;;;;;;;;1049455;28;3692;-55
2023/01/28 02:28:15;;;;;;;;;;;;;;;;;;1047376;28;3901;-54
2023/01/28 02:28:46;;;;;;;;;;;;;;;;;;1049938;28;3958;-52
2023/01/28 02:29:23;;;;;;;;;;;;;;;;;;1047058;28;2076;-54
2023/01/28 02:29:54;;;;;;;;;;;;;;;;;;1044481;28;3865;-54
2023/01/28 02:30:27;;;;;;;;;;;;;;;;;;1041311;28;1291;-52
2023/01/28 02:31:10;;;;;;;;;;;;;;;;;;1042565;28;4674;-54
2023/01/28 02:31:47;;;;;;;;;;;;;;;;;;1044919;28;3968;-55
2023/01/28 02:32:21;;;;;;;;;;;;;;;;;;1050588;28;1723;-54
2023/01/28 02:33:06;;;;;;;;;;;;;;;;;;1047038;28;4466;-55
2023/01/28 02:33:50;;;;;;;;;;;;;;;;;;1051765;28;1696;-53
2023/01/28 02:34:33;;;;;;;;;;;;;;;;;;1047611;28;7205;-53
2023/01/28 02:35:12;;;;;;;;;;;;;;;;;;1049185;28;4352;-52
2023/01/28 02:35:47;;;;;;;;;;;;;;;;;;1046553;28;4028;-52
2023/01/28 02:36:20;;;;;;;;;;;;;;;;;;1046002;28;2963;-54
2023/01/28 02:36:52;;;;;;;;;;;;;;;;;;1051129;28;3783;-52
2023/01/28 02:37:35;;;;;;;;;;;;;;;;;;1047273;28;1669;-52
2023/01/28 02:38:10;;;;;;;;;;;;;;;;;;1045958;28;3687;-55
2023/01/28 02:38:51;;;;;;;;;;;;;;;;;;1046258;28;3843;-54
2023/01/28 02:39:31;;;;;;;;;;;;;;;;;;1043833;28;1847;-54
2023/01/28 02:40:13;;;;;;;;;;;;;;;;;;1040678;28;3773;-52
2023/01/28 02:41:01;;;;;;;;;;;;;;;;;;1042456;28;3926;-55
2023/01/28 02:41:33;;;;;;;;;;;;;;;;;;1043975;28;1888;-56
2023/01/28 02:42:06;;;;;;;;;;;;;;;;;;1045430;28;3936;-54
2023/01/28 02:42:37;;;;;;;;;;;;;;;;;;1046528;28;2020;-54
2023/01/28 02:43:07;;;;;;;;;;;;;;;;;;1043542;28;3999;-51
2023/01/28 02:43:42;;;;;;;;;;;;;;;;;;1042539;28;2556;-54
2023/01/28 02:44:12;;;;;;;;;;;;;;;;;;1041338;28;3885;-55
2023/01/28 02:44:42;;;;;;;;;;;;;;;;;;1040560;28;5110;-54
2023/01/28 02:45:24;;;;;;;;;;;;;;;;;;1042752;28;1999;-52
2023/01/28 02:48:22;;;;;;;;;;;;;;;;;;1041442;28;3957;-52
2023/01/28 02:48:52;;;;;;;;;;;;;;;;;;1041673;28;4026;-54
2023/01/28 02:49:22;;;;;;;;;;;;;;;;;;1044211;28;1636;-53
2023/01/28 02:49:54;;;;;;;;;;;;;;;;;;1042456;28;3793;-52
2023/01/28 02:50:30;;;;;;;;;;;;;;;;;;1043295;28;2654;-52
2023/01/28 02:51:04;;;;;;;;;;;;;;;;;;1044117;28;4188;-54
2023/01/28 02:51:53;;;;;;;;;;;;;;;;;;1047507;28;1707;-52
2023/01/28 02:53:42;;;;;;;;;;;;;;;;;;1041012;28;3827;-53
2023/01/28 02:54:13;;;;;;;;;;;;;;;;;;1044318;28;3820;-53
2023/01/28 02:55:21;;;;;;;;;;;;;;;;;;1047076;28;3778;-53
2023/01/28 02:56:10;;;;;;;;;;;;;;;;;;1023166;28;3833;-55
2023/01/28 02:56:43;;;;;;;;;;;;;;;;;;1022883;28;3838;-55
2023/01/28 02:57:32;;;;;;;;;;;;;;;;;;1023731;28;1973;-54
2023/01/28 02:58:06;;;;;;;;;;;;;;;;;;1029461;28;4543;-51
2023/01/28 02:58:36;;;;;;;;;;;;;;;;;;1028239;28;1780;-54
2023/01/28 02:59:30;;;;;;;;;;;;;;;;;;1025876;28;3917;-53
2023/01/28 03:00:03;;;;;;;;;;;;;;;;;;1027608;28;3875;-53
2023/01/28 03:00:39;;;;;;;;;;;;;;;;;;1026466;28;2126;-50
2023/01/28 03:01:09;;;;;;;;;;;;;;;;;;1027549;28;3898;-53
2023/01/28 03:01:43;;;;;;;;;;;;;;;;;;1030517;28;3966;-50
2023/01/28 03:02:28;;;;;;;;;;;;;;;;;;1043152;28;1800;-51
2023/01/28 03:03:12;;;;;;;;;;;;;;;;;;1042263;28;3854;-52
2023/01/28 03:03:54;;;;;;;;;;;;;;;;;;1040150;28;3968;-54
2023/01/28 03:04:36;;;;;;;;;;;;;;;;;;1041630;28;2790;-53
2023/01/28 03:05:07;;;;;;;;;;;;;;;;;;1042387;28;3702;-53
2023/01/28 03:06:05;;;;;;;;;;;;;;;;;;1041757;28;1891;-53
2023/01/28 03:06:38;;;;;;;;;;;;;;;;;;1040438;28;3973;-52
2023/01/28 03:07:08;;;;;;;;;;;;;;;;;;1042127;28;3709;-53
2023/01/28 03:07:39;;;;;;;;;;;;;;;;;;1041958;28;1987;-51
2023/01/28 03:09:51;;;;;;;;;;;;;;;;;;1041452;28;3933;-53
2023/01/28 03:10:23;;;;;;;;;;;;;;;;;;1041452;28;2126;-53
2023/01/28 03:37:13;;;;;;;;;;;;;;;;;;1046332;28;3916;-53
2023/01/28 03:37:50;;;;;;;;;;;;;;;;;;1043208;28;4236;-52
2023/01/28 03:38:21;;;;;;;;;;;;;;;;;;1042831;28;1709;-51
2023/01/28 03:38:59;;;;;;;;;;;;;;;;;;1043341;28;3834;-54
2023/01/28 03:39:36;;;;;;;;;;;;;;;;;;1044302;28;2870;-54
2023/01/28 03:40:07;;;;;;;;;;;;;;;;;;1045121;28;3870;-54
2023/01/28 03:40:47;;;;;;;;;;;;;;;;;;1044067;28;2838;-52
2023/01/28 03:41:21;;;;;;;;;;;;;;;;;;1049130;28;3756;-51
2023/01/28 03:42:11;;;;;;;;;;;;;;;;;;1050885;28;3856;-54
2023/01/28 03:42:41;;;;;;;;;;;;;;;;;;1050343;28;4214;-51
2023/01/28 03:43:11;;;;;;;;;;;;;;;;;;1051332;28;1979;-52
2023/01/28 03:43:44;;;;;;;;;;;;;;;;;;1044317;28;3791;-54
2023/01/28 03:45:04;;;;;;;;;;;;;;;;;;1051181;28;3747;-53
2023/01/28 03:45:34;;;;;;;;;;;;;;;;;;1051682;28;1997;-54
2023/01/28 03:46:05;;;;;;;;;;;;;;;;;;1049269;28;3868;-55
2023/01/28 03:46:38;;;;;;;;;;;;;;;;;;1050638;28;3010;-54
2023/01/28 03:47:10;;;;;;;;;;;;;;;;;;1051357;28;3693;-53
2023/01/28 03:47:40;;;;;;;;;;;;;;;;;;1047461;28;4487;-54
2023/01/28 03:48:12;;;;;;;;;;;;;;;;;;1048741;28;2546;-53
2023/01/28 03:48:43;;;;;;;;;;;;;;;;;;1046649;28;4101;-54
2023/01/28 03:49:14;;;;;;;;;;;;;;;;;;1047611;28;2145;-55
2023/01/28 03:49:49;;;;;;;;;;;;;;;;;;1046357;28;4218;-51
2023/01/28 03:50:20;;;;;;;;;;;;;;;;;;1047772;28;1641;-52
2023/01/28 03:50:51;;;;;;;;;;;;;;;;;;1051206;28;4275;-53
2023/01/28 03:51:22;;;;;;;;;;;;;;;;;;1052036;28;1635;-54
2023/01/28 03:51:52;;;;;;;;;;;;;;;;;;1048697;28;3957;-54
2023/01/28 03:52:23;;;;;;;;;;;;;;;;;;1052455;28;2697;-54
2023/01/28 03:53:10;;;;;;;;;;;;;;;;;;1050783;28;3753;-54
2023/01/28 03:53:41;;;;;;;;;;;;;;;;;;1046797;28;4424;-53
2023/01/28 03:54:11;;;;;;;;;;;;;;;;;;1046761;28;2094;-53
2023/01/28 03:54:41;;;;;;;;;;;;;;;;;;1047391;28;3769;-54
2023/01/28 03:55:12;;;;;;;;;;;;;;;;;;1047160;28;1648;-53
2023/01/28 03:55:43;;;;;;;;;;;;;;;;;;1047452;28;4149;-54
2023/01/28 03:56:18;;;;;;;;;;;;;;;;;;1051744;28;2012;-54
2023/01/28 03:56:48;;;;;;;;;;;;;;;;;;1046853;28;3760;-51
2023/01/28 03:57:20;;;;;;;;;;;;;;;;;;1047345;28;2793;-53
2023/01/28 03:57:50;;;;;;;;;;;;;;;;;;1050122;28;4115;-54
2023/01/28 03:58:25;;;;;;;;;;;;;;;;;;1050471;28;1666;-52
2023/01/28 03:58:56;;;;;;;;;;;;;;;;;;1047965;28;3777;-53
2023/01/28 03:59:26;;;;;;;;;;;;;;;;;;1044667;28;2132;-54
2023/01/28 03:59:56;;;;;;;;;;;;;;;;;;1045670;28;3897;-55
2023/01/28 04:00:26;;;;;;;;;;;;;;;;;;1042645;28;2919;-54
2023/01/28 04:00:57;;;;;;;;;;;;;;;;;;1039990;28;3789;-54
2023/01/28 04:01:27;;;;;;;;;;;;;;;;;;1037955;28;3263;-53
2023/01/28 04:01:57;;;;;;;;;;;;;;;;;;1042751;28;3808;-51
2023/01/28 04:02:28;;;;;;;;;;;;;;;;;;1045927;28;1772;-53
2023/01/28 04:02:58;;;;;;;;;;;;;;;;;;1047401;28;3931;-54
2023/01/28 04:03:28;;;;;;;;;;;;;;;;;;1050531;28;1680;-54
2023/01/28 04:03:58;;;;;;;;;;;;;;;;;;1038010;28;4073;-54
2023/01/28 04:04:31;;;;;;;;;;;;;;;;;;1040156;28;2056;-52
2023/01/28 04:05:05;;;;;;;;;;;;;;;;;;1041176;28;3998;-53
2023/01/28 04:05:36;;;;;;;;;;;;;;;;;;1039199;28;1801;-55
2023/01/28 04:06:07;;;;;;;;;;;;;;;;;;1042539;28;3946;-52
2023/01/28 04:06:38;;;;;;;;;;;;;;;;;;1043124;28;2043;-51
2023/01/28 04:07:09;;;;;;;;;;;;;;;;;;1043954;28;3829;-53
2023/01/28 04:07:39;;;;;;;;;;;;;;;;;;1038658;28;3873;-54
2023/01/28 04:08:10;;;;;;;;;;;;;;;;;;1039586;28;2030;-54
2023/01/28 04:08:51;;;;;;;;;;;;;;;;;;1041287;28;3977;-51
2023/01/28 04:09:21;;;;;;;;;;;;;;;;;;1040456;28;1998;-51
2023/01/28 04:09:52;;;;;;;;;;;;;;;;;;1041816;28;4469;-52
2023/01/28 04:10:22;;;;;;;;;;;;;;;;;;1041788;28;2579;-53
2023/01/28 04:10:52;;;;;;;;;;;;;;;;;;1043924;28;3776;-52
2023/01/28 04:11:24;;;;;;;;;;;;;;;;;;1041255;28;3006;-52
2023/01/28 04:11:55;;;;;;;;;;;;;;;;;;1043612;28;3813;-55
2023/01/28 04:12:25;;;;;;;;;;;;;;;;;;1044227;28;2144;-51
2023/01/28 04:12:55;;;;;;;;;;;;;;;;;;1041885;28;3955;-52
2023/01/28 04:13:26;;;;;;;;;;;;;;;;;;1040564;28;1868;-53
2023/01/28 04:13:56;;;;;;;;;;;;;;;;;;1046967;28;4034;-54
2023/01/28 04:14:26;;;;;;;;;;;;;;;;;;1047526;28;2022;-51
2023/01/28 04:14:56;;;;;;;;;;;;;;;;;;1042429;28;4241;-52
2023/01/28 04:15:27;;;;;;;;;;;;;;;;;;1042801;28;1856;-53
2023/01/28 04:16:02;;;;;;;;;;;;;;;;;;1046176;28;4236;-52
2023/01/28 04:16:32;;;;;;;;;;;;;;;;;;1045280;28;1727;-52
2023/01/28 04:17:02;;;;;;;;;;;;;;;;;;1035401;28;4276;-51
2023/01/28 04:17:32;;;;;;;;;;;;;;;;;;1036229;28;2806;-52
2023/01/28 04:18:03;;;;;;;;;;;;;;;;;;1037653;28;3958;-54
2023/01/28 04:18:33;;;;;;;;;;;;;;;;;;1036493;28;2803;-51
2023/01/28 04:19:04;;;;;;;;;;;;;;;;;;1043360;28;3935;-51
2023/01/28 04:19:36;;;;;;;;;;;;;;;;;;1041336;28;2820;-52
2023/01/28 04:20:07;;;;;;;;;;;;;;;;;;1041182;28;3693;-53
2023/01/28 04:20:38;;;;;;;;;;;;;;;;;;1045214;28;1780;-54
2023/01/28 04:21:08;;;;;;;;;;;;;;;;;;1042581;28;3740;-54